Latest Weather Observations for Melbourne (Olympic Park)

IDV60801

Issued at 10:05 am EDT Sunday 26 October 2014 (issued every 30 minutes, with the page automatically refreshed every 10 minutes)

About weather observations | Map of weather stations | Latest weather observations for VIC | Other Formats
Station Details ID: 086338 Name: MELBOURNE (OLYMPIC PARK) Lat: -37.83 Lon: 144.98 Height: 7.53 m
Data from the previous 72 hours. | See also: Recent months at Melbourne (Olympic Park)
Date/Time
EDT
Temp
°C
App
Temp
°C
Dew
Point
Rel
Hum
%
Delta-T
°C
Wind Press
QNH
hPa
Press
MSL
hPa
Rain
since 9 am
mm
Dir
 
Spd
km/h
Gust
km/h
Spd
kts
Gust
kts
26/10:00am 14.9 13.6 9.9 72 2.6 S 7 13 4 7 1014.8 1014.8 0.0
26/09:30am 14.7 14.3 9.9 73 2.5 S 2 9 1 5 1014.2 1014.2 0.0
26/09:00am 14.4 13.6 9.8 74 2.4 SSW 4 9 2 5 1014.5 1014.5 0.0
26/08:30am 14.3 13.9 9.9 75 2.3 S 2 7 1 4 1014.5 1014.5 0.0
26/08:00am 14.2 13.1 9.8 75 2.3 SE 6 11 3 6 1013.7 1013.7 0.0
26/07:30am 14.0 13.6 9.8 76 2.2 SSE 2 9 1 5 1014.0 1014.0 0.0
26/07:00am 13.9 12.6 9.9 77 2.1 SSE 7 13 4 7 1013.8 1013.8 0.0
26/06:30am 13.9 12.6 10.1 78 2.0 S 7 11 4 6 1013.5 1013.5 0.0
26/06:00am 13.9 12.6 9.9 77 2.1 SSE 7 13 4 7 1013.3 1013.3 0.0
26/05:30am 14.0 13.3 10.2 78 2.0 SSE 4 9 2 5 1013.3 1013.3 0.0
26/05:00am 13.9 12.8 10.1 78 2.0 SSE 6 11 3 6 1013.5 1013.5 0.0
26/04:30am 14.0 12.8 10.4 79 1.9 S 7 15 4 8 1013.2 1013.2 0.0
26/04:00am 14.1 12.6 10.5 79 1.9 S 9 13 5 7 1013.4 1013.4 0.0
26/03:30am 14.2 13.2 10.4 78 2.0 S 6 13 3 7 1013.0 1013.0 0.0
26/03:00am 14.2 13.7 10.6 79 1.9 S 4 7 2 4 1013.6 1013.6 0.0
26/02:30am 14.2 13.1 10.6 79 1.9 SSE 7 15 4 8 1013.4 1013.4 0.0
26/02:00am 14.3 13.2 10.7 79 1.9 S 7 13 4 7 1014.3 1014.3 0.0
26/01:30am 14.4 13.5 10.8 79 1.9 SSW 6 9 3 5 1014.7 1014.7 0.0
26/01:00am 14.5 13.5 10.9 79 1.9 S 7 11 4 6 1015.0 1015.0 0.0
26/12:30am 14.4 12.9 10.6 78 2.0 S 9 15 5 8 1015.4 1015.4 0.0
26/12:00am 14.5 12.7 10.7 78 2.0 SSE 11 17 6 9 1015.6 1015.6 0.0
 
Date/Time
EDT
Temp
°C
App
Temp
°C
Dew
Point
Rel
Hum
%
Delta-T
°C
Wind Press
QNH
hPa
Press
MSL
hPa
Rain
since 9 am
mm
Dir
 
Spd
km/h
Gust
km/h
Spd
kts
Gust
kts
25/11:30pm 14.5 13.5 10.9 79 1.9 S 7 13 4 7 1016.1 1016.1 0.0
25/11:00pm 14.5 13.5 10.9 79 1.9 S 7 11 4 6 1016.2 1016.2 0.0
25/10:30pm 14.5 13.5 10.9 79 1.9 S 7 13 4 7 1016.5 1016.5 0.0
25/10:00pm 14.4 13.5 11.2 81 1.7 S 7 15 4 8 1016.5 1016.5 0.0
25/09:30pm 14.4 13.0 11.0 80 1.8 S 9 13 5 7 1016.3 1016.3 0.0
25/09:00pm 14.5 13.7 11.1 80 1.8 SSE 6 11 3 6 1016.2 1016.2 0.0
25/08:30pm 14.9 13.5 10.9 77 2.1 S 9 15 5 8 1016.1 1016.1 0.0
25/08:00pm 15.2 13.4 11.0 76 2.2 SSW 11 20 6 11 1015.7 1015.7 0.0
25/07:30pm 15.2 12.7 11.0 76 2.2 SSW 15 28 8 15 1015.6 1015.6 0.0
25/07:00pm 15.4 12.5 11.0 75 2.3 SSW 17 30 9 16 1015.5 1015.5 0.0
25/06:30pm 16.0 13.5 11.0 72 2.7 SSW 15 26 8 14 1015.1 1015.1 0.0
25/06:00pm 16.3 13.9 11.5 73 2.6 SSW 15 26 8 14 1015.0 1015.0 0.0
25/05:30pm 16.8 14.8 11.5 71 2.9 S 13 26 7 14 1014.9 1014.9 0.0
25/05:00pm 16.4 13.6 11.3 72 2.7 S 17 26 9 14 1014.8 1014.8 0.0
25/04:30pm 16.9 14.0 11.0 68 3.2 S 17 24 9 13 1014.7 1014.7 0.0
25/04:00pm 17.8 15.9 11.8 68 3.3 SSW 13 24 7 13 1014.7 1014.7 0.0
25/03:30pm 17.9 15.5 11.5 66 3.5 SSW 15 22 8 12 1014.8 1014.8 0.0
25/03:00pm 17.7 15.2 11.0 65 3.6 SSW 15 22 8 12 1015.2 1015.2 0.0
25/02:30pm 17.4 15.6 10.8 65 3.5 SSW 11 17 6 9 1015.7 1015.7 0.0
25/02:00pm 17.5 16.2 11.3 67 3.4 SW 9 17 5 9 1015.9 1015.9 0.0
25/01:30pm 16.4 14.6 10.7 69 3.0 SW 11 17 6 9 1016.2 1016.2 0.0
25/01:00pm 16.9 15.5 11.0 68 3.2 SSW 9 17 5 9 1016.3 1016.3 0.0
25/12:30pm 16.6 15.2 10.9 69 3.1 WSW 9 15 5 8 1016.6 1016.6 0.0
25/12:00pm 16.2 14.0 10.9 71 2.8 SSW 13 20 7 11 1017.1 1017.1 0.0
25/11:30am 15.7 14.3 10.9 73 2.6 SSW 9 15 5 8 1017.4 1017.4 0.0
25/11:00am 15.8 14.4 11.0 73 2.6 SSE 9 15 5 8 1017.7 1017.7 0.0
25/10:30am 15.3 13.6 11.3 77 2.1 S 11 19 6 10 1017.7 1017.7 0.0
25/10:00am 15.7 14.4 11.1 74 2.5 SSE 9 19 5 10 1017.6 1017.6 0.0
25/09:30am 15.7 14.7 10.9 73 2.6 S 7 13 4 7 1017.5 1017.5 0.0
25/09:00am 15.6 14.6 11.0 74 2.4 SSE 7 13 4 7 1017.5 1017.5 0.0
25/08:30am 15.3 14.3 11.1 76 2.2 SSE 7 13 4 7 1017.7 1017.7 0.0
25/08:00am 15.0 13.7 11.2 78 2.0 SSE 9 15 5 8 1017.6 1017.6 0.0
25/07:30am 14.9 13.7 11.5 80 1.8 S 9 17 5 9 1017.3 1017.3 0.0
25/07:00am 14.9 14.0 11.5 80 1.8 S 7 11 4 6 1017.1 1017.1 0.0
25/06:30am 14.9 15.3 11.3 79 1.9 CALM 0 6 0 3 1016.9 1016.9 0.0
25/06:00am 15.0 15.4 11.4 79 1.9 CALM 0 0 0 0 1016.7 1016.7 0.0
25/05:30am 14.8 14.8 11.2 79 1.9 SSW 2 9 1 5 1016.7 1016.7 0.0
25/05:00am 14.9 14.0 11.3 79 1.9 SSW 7 13 4 7 1016.4 1016.4 0.0
25/04:30am 14.8 14.1 11.4 80 1.8 SSW 6 11 3 6 1016.2 1016.2 0.0
25/04:00am 14.7 14.1 11.8 83 1.6 SSW 6 13 3 7 1016.3 1016.3 0.0
25/03:30am 14.5 13.8 12.0 85 1.4 SW 7 13 4 7 1016.3 1016.3 0.0
25/03:00am 14.3 14.1 12.9 91 0.8 SW 6 15 3 8 1016.4 1016.4 0.0
25/02:30am 14.5 14.2 13.4 93 0.6 S 7 13 4 7 1016.5 1016.5 0.0
25/02:00am 14.6 13.5 13.1 91 0.8 SSW 11 20 6 11 1016.5 1016.5 0.0
25/01:30am 15.6 14.9 13.3 86 1.3 SSW 9 17 5 9 1016.6 1016.6 0.0
25/01:00am 15.8 15.5 13.3 85 1.4 SSW 7 13 4 7 1016.6 1016.6 0.0
25/12:30am 15.9 15.8 13.2 84 1.5 SSE 6 9 3 5 1016.5 1016.5 0.0
25/12:00am 15.9 15.8 13.4 85 1.4 S 6 9 3 5 1016.6 1016.6 0.0
 
Date/Time
EDT
Temp
°C
App
Temp
°C
Dew
Point
Rel
Hum
%
Delta-T
°C
Wind Press
QNH
hPa
Press
MSL
hPa
Rain
since 9 am
mm
Dir
 
Spd
km/h
Gust
km/h
Spd
kts
Gust
kts
24/11:30pm 15.7 15.4 13.4 86 1.3 S 7 13 4 7 1016.5 1016.5 0.0
24/11:00pm 15.6 14.9 13.3 86 1.3 SSE 9 17 5 9 1016.5 1016.5 0.0
24/10:30pm 15.5 14.8 13.3 87 1.2 SSE 9 20 5 11 1016.3 1016.3 0.0
24/10:00pm 15.5 14.1 13.3 87 1.2 S 13 20 7 11 1015.8 1015.8 0.0
24/09:30pm 15.6 13.9 13.6 88 1.1 SSW 15 26 8 14 1015.3 1015.3 0.0
24/09:00pm 15.8 14.7 14.2 90 0.9 SSW 13 20 7 11 1014.4 1014.4 0.0
24/08:30pm 15.7 14.8 14.9 95 0.5 S 13 26 7 14 1013.9 1013.9 0.0
24/08:00pm 16.8 15.3 15.2 90 0.9 SSW 17 26 9 14 1013.0 1013.0 0.0
24/07:30pm 18.0 17.1 14.9 82 1.8 SSW 13 26 7 14 1012.0 1012.0 0.0
24/07:00pm 19.7 18.6 15.4 76 2.5 SSW 15 26 8 14 1011.3 1011.3 0.0
24/06:30pm 23.5 22.4 14.2 56 5.5 SSW 13 24 7 13 1010.4 1010.4 0.0
24/06:00pm 27.0 25.4 11.5 38 8.9 SSW 11 20 6 11 1009.7 1009.7 0.0
24/05:30pm 28.6 26.9 11.2 34 10.0 SSW 11 20 6 11 1009.5 1009.5 0.0
24/05:00pm 29.9 29.2 11.9 33 10.5 S 7 13 4 7 1009.3 1009.3 0.0
24/04:30pm 30.1 30.4 12.1 33 10.5 S 2 6 1 3 1009.4 1009.4 0.0
24/04:00pm 28.7 27.9 11.7 35 9.8 SSW 7 17 4 9 1009.7 1009.7 0.0
24/03:30pm 27.2 25.4 12.0 38 8.8 S 13 19 7 10 1010.0 1010.0 0.0
24/03:00pm 27.5 27.5 14.2 44 8.0 S 7 15 4 8 1009.9 1009.9 0.0
24/02:30pm 25.9 24.4 13.1 45 7.5 SSW 13 26 7 14 1010.3 1010.3 0.0
24/02:00pm 27.0 26.3 14.4 46 7.6 SSW 11 17 6 9 1010.4 1010.4 0.0
24/01:30pm 27.1 27.9 14.8 47 7.4 S 4 9 2 5 1010.4 1010.4 0.0
24/01:00pm 26.0 26.6 15.7 53 6.3 SSW 7 13 4 7 1010.7 1010.7 0.0
24/12:30pm 25.6 26.5 16.2 56 5.8 S 6 11 3 6 1010.9 1010.9 0.0
24/12:00pm 21.7 22.4 15.5 68 3.7 S 6 13 3 7 1011.3 1011.3 0.0
24/11:30am 21.0 20.3 15.3 70 3.4 SSW 13 20 7 11 1011.5 1011.5 0.0
24/11:00am 23.3 23.9 15.4 61 4.7 SW 6 9 3 5 1011.2 1011.2 0.0
24/10:30am 22.3 22.0 14.4 61 4.6 N 9 17 5 9 1011.5 1011.5 0.0
24/10:00am 21.3 22.8 14.7 66 3.9 CALM 0 7 0 4 1011.7 1011.7 0.0
24/09:30am 19.4 20.4 14.4 73 2.9 NNE 2 7 1 4 1011.6 1011.6 0.0
24/09:00am 17.8 18.9 14.5 81 1.9 NW 2 9 1 5 1012.1 1012.1 0.0
24/08:30am 16.5 16.2 14.3 87 1.3 NNE 9 11 5 6 1012.3 1012.3 0.0
24/08:00am 15.7 15.3 14.2 91 0.9 NE 9 13 5 7 1012.4 1012.4 0.0
24/07:30am 15.4 15.4 14.3 93 0.6 NNW 7 11 4 6 1012.4 1012.4 0.0
24/07:00am 15.4 16.4 14.4 94 0.6 N 2 11 1 6 1012.4 1012.4 0.0
24/06:30am 15.3 15.9 14.3 94 0.6 N 4 9 2 5 1012.3 1012.3 0.0
24/06:00am 15.2 15.2 14.2 94 0.6 N 7 13 4 7 1012.3 1012.3 0.0
24/05:30am 15.3 14.9 14.2 93 0.6 NNE 9 13 5 7 1012.3 1012.3 0.0
24/05:00am 15.5 15.7 14.2 92 0.7 NNW 6 7 3 4 1012.5 1012.5 0.0
24/04:30am 15.4 16.3 14.1 92 0.7 N 2 9 1 5 1012.5 1012.5 0.0
24/04:00am 15.6 16.2 14.3 92 0.7 N 4 9 2 5 1012.6 1012.6 0.0
24/03:30am 15.4 15.6 14.1 92 0.7 N 6 11 3 6 1012.7 1012.7 0.0
24/03:00am 15.5 16.8 14.2 92 0.7 CALM 0 0 0 0 1012.9 1012.9 0.0
24/02:30am 15.3 15.5 14.2 93 0.6 NNW 6 11 3 6 1013.4 1013.4 0.0
24/02:00am 15.2 14.8 14.1 93 0.6 NNW 9 13 5 7 1013.8 1013.8 0.0
24/01:30am 15.2 14.4 13.9 92 0.7 NNW 11 17 6 9 1014.1 1014.1 0.0
24/01:00am 15.4 15.9 14.1 92 0.7 NW 4 13 2 7 1014.4 1014.4 0.0
24/12:30am 15.4 15.3 13.9 91 0.8 N 7 11 4 6 1014.5 1014.5 0.0
24/12:00am 15.4 16.8 14.3 93 0.6 CALM 0 9 0 5 1014.9 1014.9 0.0
 
Date/Time
EDT
Temp
°C
App
Temp
°C
Dew
Point
Rel
Hum
%
Delta-T
°C
Wind Press
QNH
hPa
Press
MSL
hPa
Rain
since 9 am
mm
Dir
 
Spd
km/h
Gust
km/h
Spd
kts
Gust
kts
23/11:30pm 15.2 16.5 14.1 93 0.6 CALM 0 0 0 0 1015.0 1015.0 0.0
23/11:00pm 15.6 16.8 13.8 89 1.0 CALM 0 0 0 0 1015.1 1015.1 0.0
23/10:30pm 16.1 17.4 14.1 88 1.1 CALM 0 0 0 0 1015.2 1015.2 0.0
23/10:00pm 16.6 17.9 14.1 85 1.4 CALM 0 0 0 0 1015.4 1015.4 0.0
23/09:30pm 17.1 18.0 14.0 82 1.8 SE 2 9 1 5 1015.2 1015.2 0.0
23/09:00pm 17.4 17.6 14.1 81 1.9 SE 6 13 3 7 1015.0 1015.0 0.0
23/08:30pm 17.8 17.8 14.1 79 2.1 SSE 7 13 4 7 1014.8 1014.8 0.0
23/08:00pm 18.4 18.4 14.3 77 2.4 SSE 7 15 4 8 1014.7 1014.7 0.0
23/07:30pm 19.1 18.9 14.6 75 2.6 SSE 9 19 5 10 1014.9 1014.9 0.0
23/07:00pm 20.0 18.7 14.8 72 3.0 SSE 15 24 8 13 1014.8 1014.8 0.0
23/06:30pm 20.9 20.1 15.0 69 3.5 SSE 13 26 7 14 1014.7 1014.7 0.0
23/06:00pm 21.5 20.4 15.3 68 3.7 SSE 15 20 8 11 1014.8 1014.8 0.0
23/05:30pm 22.0 22.3 16.1 69 3.6 SW 9 22 5 12 1014.9 1014.9 0.0
23/05:00pm 19.8 19.0 15.2 75 2.7 WSW 13 20 7 11 1015.3 1015.3 0.0
23/04:30pm 18.7 17.3 14.6 77 2.4 WSW 15 20 8 11 1015.8 1015.8 0.0
23/04:00pm 18.0 16.8 14.1 78 2.2 SW 13 26 7 14 1016.2 1016.2 0.0
23/03:30pm 18.0 16.9 14.3 79 2.1 SSW 13 20 7 11 1016.7 1016.7 0.0
23/03:00pm 17.6 16.4 13.9 79 2.1 SW 13 20 7 11 1017.1 1017.1 0.0
23/02:30pm 17.5 16.8 14.2 81 1.9 SW 11 20 6 11 1017.7 1017.7 0.0
23/02:00pm 17.1 16.2 13.6 80 2.0 SSW 11 20 6 11 1018.0 1018.0 0.0
23/01:30pm 16.4 15.4 13.3 82 1.7 SSW 11 20 6 11 1018.3 1018.3 0.0
23/01:00pm 16.3 15.0 13.8 85 1.4 SSW 13 20 7 11 1018.9 1018.9 0.0
23/12:30pm 15.7 14.8 13.7 88 1.1 SSW 11 17 6 9 1019.2 1019.2 0.0
23/12:00pm 15.5 15.0 13.7 89 1.0 SSW 9 17 5 9 1019.6 1019.6 0.0
23/11:30am 15.4 14.8 13.4 88 1.1 SSW 9 17 5 9 1019.8 1019.8 0.0
23/11:00am 15.4 15.2 13.6 89 1.0 SSW 7 13 4 7 1020.2 1020.2 0.0
23/10:30am 15.5 14.9 13.5 88 1.1 SSW 9 17 5 9 1020.3 1020.3 0.0

Other Formats:

Comma delimited format used in spreadsheet applications
http://www.bom.gov.au/fwo/IDV60801/IDV60801.95936.axf

JavaScript Object Notation format (JSON) in row-major order
http://www.bom.gov.au/fwo/IDV60801/IDV60801.95936.json